• Join FlightAware (Why Join?)
  • Login
  • US Flag 
12:39PM EDT


 

Airport Tracker/Info


-or-


 

Live Flight TrackerFlight Track Log ✈ N502QS ✈ 17-Nov-2013 ✈ KBLI - KBFI

Flight Track Log - Related Links

Times and Time Zones

All times are in EST time to prevent confusion due to time zone crossing. See the N502QS flight status page for this flight to view local times or setup timezone preferences in your user account.

Time Position Orientation Groundspeed Altitude Reporting Facility
EST Latitude Longitude Course Direction KTS MPH feet Rate Location/Type
11:33AM 48.7667 -122.5333 141° Southeast 150 173 1,700  Level Vancouver Center
11:34AM 48.7167 -122.5667 204° Southwest 180 207 4,300 3,480 Climbing Vancouver Center
11:35AM 48.6500 -122.5667 180° South 250 288 8,700 2,280 Climbing Vancouver Center
11:36AM 48.5908 -122.6047 203° Southwest 260 299 9,200 1,320 Climbing Seattle Center
11:37AM 48.3572 -122.4550 161° South  Level Estimated
11:37AM 48.5169 -122.6297 193° South 268 308 11,600  Level Seattle Center
11:38AM 48.2846 -122.4413 141° Southeast  Level Estimated
11:38AM 48.4231 -122.6581 191° South 335 386 12,000  Level Seattle Center
11:39AM 48.3189 -122.6836 189° South 370 426 12,000  Level Seattle Center
11:40AM 48.2189 -122.7044 188° South 362 417 12,000  Level Seattle Center
11:40AM 48.2011 -122.7094 191° South 366 421 12,000  Level Seattle Center
11:41AM 48.1172 -122.7289 189° South 358 412 12,000  Level Seattle Center
11:41AM 48.1206 -122.7272 18° North 359 413 12,000 -960 Level Seattle Center
11:42AM 48.0203 -122.7492 188° South 317 365 11,000 -900 Descending Seattle Center
11:42AM 48.0275 -122.7492 360° North 336 387 11,100  Climbing Seattle Center
11:43AM 47.9708 -122.7564 185° South 269 310 11,000 -420 Descending Seattle Center
11:43AM 47.9517 -122.7525 172° South 278 320 10,700 -1,380 Descending Seattle Center
11:44AM 47.8703 -122.7353 172° South 278 320 9,200 -1,680 Descending Seattle Center
11:44AM 47.8597 -122.7319 168° South 276 318 9,000 -1,800 Descending Seattle Center
11:45AM 47.8033 -122.7061 163° South 269 310 7,400 -1,920 Descending Seattle Center
11:45AM 47.7961 -122.6908 125° Southeast 271 312 7,100 -2,580 Descending Seattle Center
11:46AM 47.7647 -122.5903 115° Southeast 272 313 4,500 -2,580 Descending Seattle Center
11:47AM 47.7425 -122.5156 114° Southeast 257 296 2,500 -2,100 Descending Seattle Center
11:47AM 47.7358 -122.4942 115° Southeast 258 297 2,400 -240 Descending Seattle Center
11:48AM 47.7067 -122.4531 137° Southeast 182 209 2,300 -240 Descending Seattle Center
11:48AM 47.6975 -122.4444 148° Southeast 179 206 2,200 -120 Descending Seattle Center
11:49AM 47.6706 -122.4236 152° Southeast 129 148 2,200  Level Seattle Center
11:49AM 47.6631 -122.4158 145° Southeast 146 168 2,200  Level Seattle Center
11:50AM 47.6389 -122.3950 150° Southeast 140 161 2,200 -120 Level Seattle Center
11:50AM 47.6281 -122.3856 150° Southeast 145 167 2,100 -600 Descending Seattle Center
11:51AM 47.6081 -122.3694 151° Southeast 125 144 1,600 -600 Descending Seattle Center
11:51AM 47.6008 -122.3633 150° Southeast 107 123 1,500 -540 Descending Seattle Center
11:52AM 47.5850 -122.3492 149° Southeast 92 106 1,100 -720 Descending Seattle Center
11:52AM 47.5761 -122.3422 152° Southeast 102 117 800 -600 Descending Seattle Center
11:53AM 47.5594 -122.3272 149° Southeast 103 119 500 -540 Descending Seattle Center
11:53AM 47.5519 -122.3208 150° Southeast 103 119 300 8,580 Descending Seattle Center
11:54AM 47.5286 -122.3017 151° Southeast 105 121 12,000 5,700 Climbing Seattle Center
11:55AM 47.5319 -122.3019 357° North 34 39 12,000  Level Seattle Center